createdAt,value
2018-08-16T00:04:01.277Z,18.0
2018-08-16T00:19:01.348Z,17.9
2018-08-16T00:24:01.280Z,17.8
2018-08-16T00:29:01.466Z,17.7
2018-08-16T00:34:01.289Z,17.6
2018-08-16T00:39:01.469Z,17.5
2018-08-16T00:44:01.309Z,17.4
2018-08-16T00:49:01.333Z,17.3
2018-08-16T00:54:01.285Z,17.2
2018-08-16T01:09:01.406Z,17.3
2018-08-16T01:14:01.281Z,17.4
2018-08-16T01:19:01.356Z,17.5
2018-08-16T01:24:01.319Z,17.6
2018-08-16T01:29:01.420Z,17.7
2018-08-16T01:35:01.348Z,17.8
2018-08-16T01:40:01.405Z,17.9
2018-08-16T01:45:01.327Z,17.9
2018-08-16T01:50:01.480Z,18.0
2018-08-16T02:00:01.429Z,18.0
2018-08-16T02:05:01.352Z,17.9
2018-08-16T02:15:01.427Z,18.0
2018-08-16T02:25:01.356Z,18.1
2018-08-16T02:30:01.359Z,18.1
2018-08-16T02:35:01.355Z,18.2
2018-08-16T02:45:01.458Z,18.3
2018-08-16T02:55:01.339Z,18.4
2018-08-16T03:00:01.509Z,18.4
2018-08-16T03:15:01.459Z,18.5
2018-08-16T03:30:01.457Z,18.5
2018-08-16T03:35:01.451Z,18.6
2018-08-16T03:40:01.535Z,18.5
2018-08-16T03:45:01.553Z,18.5
2018-08-16T03:50:01.828Z,18.4
2018-08-16T04:01:01.483Z,18.3
2018-08-16T04:06:01.526Z,18.2
2018-08-16T04:11:01.487Z,18.1
2018-08-16T04:26:01.608Z,18.2
2018-08-16T04:36:01.536Z,18.3
2018-08-16T04:41:01.678Z,18.4
2018-08-16T04:51:01.528Z,18.5
2018-08-16T05:01:01.636Z,18.6
2018-08-16T05:12:01.419Z,18.7
2018-08-16T05:22:01.490Z,18.8
2018-08-16T05:32:01.431Z,18.9
2018-08-16T05:42:01.424Z,19.0
2018-08-16T05:52:01.441Z,19.1
2018-08-16T05:57:01.444Z,19.2
2018-08-16T06:02:01.448Z,19.3
2018-08-16T06:07:01.453Z,19.4
2018-08-16T06:12:01.617Z,19.6
2018-08-16T06:17:01.497Z,19.7
2018-08-16T06:22:01.391Z,19.8
2018-08-16T06:32:01.146Z,19.9
2018-08-16T06:42:01.445Z,20.1
2018-08-16T06:47:01.339Z,20.2
2018-08-16T06:52:01.436Z,20.4
2018-08-16T06:57:01.614Z,20.6
2018-08-16T07:02:01.368Z,20.8
2018-08-16T07:07:01.303Z,21.0
2018-08-16T07:13:01.417Z,21.2
2018-08-16T07:28:01.442Z,21.3
2018-08-16T07:33:01.499Z,21.4
2018-08-16T07:38:01.375Z,21.5
2018-08-16T07:43:01.364Z,21.6
2018-08-16T07:48:01.344Z,21.8
2018-08-16T08:03:01.153Z,21.8
2018-08-16T08:18:01.157Z,21.9
2018-08-16T08:23:01.471Z,22.2
2018-08-16T08:28:01.368Z,22.4
2018-08-16T08:33:01.314Z,22.6
2018-08-16T08:38:01.290Z,22.7
2018-08-16T08:43:01.398Z,22.8
2018-08-16T08:48:01.409Z,22.7
2018-08-16T08:53:01.386Z,22.6
2018-08-16T08:58:01.289Z,22.5
2018-08-16T09:03:01.340Z,22.6
2018-08-16T09:08:01.332Z,22.7
2018-08-16T09:13:01.377Z,22.9
2018-08-16T09:18:01.339Z,23.1
2018-08-16T09:23:01.420Z,23.4
2018-08-16T09:28:01.412Z,23.6
2018-08-16T09:33:01.354Z,23.8
2018-08-16T09:38:01.335Z,24.0
2018-08-16T09:43:01.398Z,24.3
2018-08-16T09:48:01.335Z,24.5
2018-08-16T10:03:01.141Z,24.4
2018-08-16T10:08:01.292Z,24.1
2018-08-16T10:13:01.431Z,24.0
2018-08-16T10:18:01.368Z,23.9
2018-08-16T10:28:01.429Z,24.1
2018-08-16T10:33:01.290Z,24.3
2018-08-16T10:38:01.290Z,24.4
2018-08-16T10:43:01.510Z,24.5
2018-08-16T10:48:01.339Z,24.6
2018-08-16T10:53:01.363Z,24.5
2018-08-16T10:58:01.298Z,24.4
2018-08-16T11:03:01.386Z,24.3
2018-08-16T11:08:01.312Z,24.2
2018-08-16T11:13:01.460Z,24.3
2018-08-16T11:18:01.298Z,24.5
2018-08-16T11:23:01.480Z,24.8
2018-08-16T11:28:01.551Z,25.0
2018-08-16T11:33:01.285Z,25.3
2018-08-16T11:38:01.393Z,25.5
2018-08-16T11:43:01.512Z,25.7
2018-08-16T11:48:01.330Z,25.9
2018-08-16T11:53:01.387Z,26.0
2018-08-16T12:03:01.123Z,25.8
2018-08-16T12:08:01.241Z,25.5
2018-08-16T12:13:01.485Z,25.2
2018-08-16T12:18:01.287Z,24.9
2018-08-16T12:23:01.425Z,24.8
2018-08-16T12:28:01.365Z,24.9
2018-08-16T12:43:01.404Z,25.0
2018-08-16T12:48:01.308Z,24.9
2018-08-16T12:54:01.348Z,25.0
2018-08-16T12:59:01.511Z,25.2
2018-08-16T13:04:01.363Z,25.4
2018-08-16T13:14:01.495Z,25.3
2018-08-16T13:19:01.366Z,25.1
2018-08-16T13:24:01.353Z,25.0
2018-08-16T13:29:01.556Z,25.1
2018-08-16T13:44:01.384Z,25.1
2018-08-16T13:50:01.356Z,24.9
2018-08-16T13:55:01.388Z,24.7
2018-08-16T14:00:01.629Z,24.7
2018-08-16T14:15:01.639Z,24.7
2018-08-16T14:20:01.364Z,24.6
2018-08-16T14:25:01.290Z,24.7
2018-08-16T14:30:01.582Z,24.7
2018-08-16T14:35:01.284Z,24.6
2018-08-16T14:40:01.382Z,24.7
2018-08-16T14:45:01.267Z,24.9
2018-08-16T14:50:01.385Z,25.0
2018-08-16T14:55:01.282Z,25.2
2018-08-16T15:00:01.662Z,25.4
2018-08-16T15:05:01.290Z,25.6
2018-08-16T15:15:01.501Z,25.7
2018-08-16T15:30:01.558Z,25.7
2018-08-16T15:35:01.296Z,25.6
2018-08-16T15:40:01.413Z,25.5
2018-08-16T15:45:01.485Z,25.5
2018-08-16T15:55:01.434Z,25.4
2018-08-16T16:00:01.503Z,25.4
2018-08-16T16:10:01.420Z,25.2
2018-08-16T16:15:01.446Z,24.9
2018-08-16T16:20:01.552Z,24.8
2018-08-16T16:25:01.298Z,24.6
2018-08-16T16:30:01.707Z,24.4
2018-08-16T16:35:01.289Z,24.2
2018-08-16T16:40:01.352Z,24.0
2018-08-16T16:45:01.636Z,23.8
2018-08-16T16:55:01.702Z,23.6
2018-08-16T17:00:01.675Z,23.6
2018-08-16T17:06:01.568Z,23.5
2018-08-16T17:11:01.465Z,23.4
2018-08-16T17:16:01.688Z,23.2
2018-08-16T17:26:01.672Z,23.1
2018-08-16T17:31:01.693Z,23.0
2018-08-16T17:36:01.707Z,22.9
2018-08-16T17:41:01.672Z,22.8
2018-08-16T17:51:01.625Z,22.6
2018-08-16T18:01:01.428Z,22.5
2018-08-16T18:06:01.430Z,22.4
2018-08-16T18:11:01.521Z,22.3
2018-08-16T18:16:01.468Z,22.2
2018-08-16T18:21:01.499Z,22.0
2018-08-16T18:26:01.441Z,21.9
2018-08-16T18:31:01.449Z,21.7
2018-08-16T18:36:01.549Z,21.5
2018-08-16T18:41:01.530Z,21.3
2018-08-16T18:46:01.562Z,21.1
2018-08-16T18:51:01.459Z,20.9
2018-08-16T18:56:01.554Z,20.8
2018-08-16T19:01:01.461Z,20.5
2018-08-16T19:06:01.727Z,20.4
2018-08-16T19:11:01.429Z,20.2
2018-08-16T19:16:01.472Z,20.1
2018-08-16T19:21:01.518Z,19.9
2018-08-16T19:26:01.528Z,19.8
2018-08-16T19:31:01.446Z,19.6
2018-08-16T19:36:01.712Z,19.5
2018-08-16T19:41:01.397Z,19.4
2018-08-16T19:46:01.462Z,19.3
2018-08-16T19:56:01.530Z,19.4
2018-08-16T20:11:01.366Z,19.5
2018-08-16T20:16:01.285Z,19.4
2018-08-16T20:26:01.354Z,19.3
2018-08-16T20:31:01.358Z,19.2
2018-08-16T20:41:01.429Z,19.1
2018-08-16T20:56:01.371Z,19.1
2018-08-16T21:01:01.652Z,19.0
2018-08-16T21:06:01.276Z,18.9
2018-08-16T21:11:01.353Z,18.8
2018-08-16T21:16:01.278Z,18.7
2018-08-16T21:21:01.359Z,18.5
2018-08-16T21:31:01.310Z,18.4
2018-08-16T21:41:01.418Z,18.3
2018-08-16T21:56:01.469Z,18.3
2018-08-16T22:11:01.416Z,18.3
2018-08-16T22:26:01.348Z,18.3
2018-08-16T22:31:01.441Z,18.2
2018-08-16T22:46:01.353Z,18.1
2018-08-16T22:56:01.452Z,18.2
2018-08-16T23:11:01.416Z,18.3
2018-08-16T23:16:01.278Z,18.4
2018-08-16T23:26:01.294Z,18.5
2018-08-16T23:36:01.485Z,18.4
2018-08-16T23:46:01.383Z,18.3
2018-08-16T23:51:01.538Z,18.2
